Startpagina
METAR-TAF:

METAR-TAF

Vliegvelden :

Talkeetna, Alaska, Verenigde Staten

breedte: 62-19-14N, lengte: 150-05-37W, hoogte: 109 m

Actueel weer

Dit bericht is 1 uur en het 2 minuten geleden gemaakt, om 11:53 UTC
Weinig wind
Temperatuur 9°C
Vochtigheid 93%
Druk 1022 hPa
Zicht: 16.1 km
Geheel bewolkt op 3200 ft

METAR: PATK 191153Z AUTO 00000KT 10SM OVC032 09/08 A3019 RMK AO2 SLP227 T00890078 10100 20078 51004 TSNO

Tijdstip: 04:55 (12:55 UTC)

Verwachting

Dit bericht is 1 uur en het 28 minuten geleden gemaakt, om 11:27 UTC
Verwachting geldig van 19 om 12 UTC tot 20 om 12 UTC
Wind 4 kt uit het zuidoosten
Zicht: 10 km
Gebroken wolken op 2500 ft
Geheel bewolkt op 5000 ft
Van 19 om 1900 UTC
Wind 4 kt uit het westzuidwesten
Zicht: 10 km
Verspreide wolken op 2000 ft
Gebroken wolken op 5000 ft

TAF: PATK 191127Z 1912/2012 14004KT P6SM BKN025 OVC050 FM191900 25004KT P6SM SCT020 BKN050

Waarnemingen en weersverwachtingen van meer dan 4000 vliegvelden (METAR en TAF).

De beschikbare stations zijn de gele en rode punten op de kaart.

Ga met uw muis naar het station om de naam te zien.

Klik dan om waarnemingen en weersverwachtingen te zien.

kaart wijzigen: klik op de groene knoppen met een zwart kruis om in te zoomen, op de groene knop met een streepje om uit te zoomen of op de groene pijlen voor aangrenzende kaarten.


METAR-TAF: